createdAt,value
2022-11-01T00:02:02.365Z,17.67
2022-11-01T00:04:30.608Z,17.65
2022-11-01T00:06:58.924Z,18.33
2022-11-01T00:09:27.209Z,18.40
2022-11-01T00:11:56.876Z,15.52
2022-11-01T00:14:25.424Z,13.65
2022-11-01T00:16:53.590Z,13.98
2022-11-01T00:19:21.699Z,12.15
2022-11-01T00:21:50.605Z,10.18
2022-11-01T00:24:18.806Z,9.15
2022-11-01T00:26:50.138Z,8.45
2022-11-01T00:29:19.721Z,7.82
2022-11-01T00:31:47.780Z,8.02
2022-11-01T00:34:16.999Z,8.60
2022-11-01T00:36:45.475Z,9.85
2022-11-01T00:39:14.992Z,9.07
2022-11-01T00:41:43.196Z,9.95
2022-11-01T00:44:11.445Z,8.18
2022-11-01T00:46:41.064Z,7.50
2022-11-01T00:49:09.340Z,5.95
2022-11-01T00:51:37.384Z,4.70
2022-11-01T00:54:05.863Z,5.20
2022-11-01T00:56:33.989Z,3.75
2022-11-01T00:59:02.215Z,4.03
2022-11-01T01:01:32.411Z,3.78
2022-11-01T01:04:02.191Z,4.22
2022-11-01T01:06:30.367Z,4.32
2022-11-01T01:09:00.629Z,5.32
2022-11-01T01:11:29.247Z,4.80
2022-11-01T01:13:57.560Z,5.13
2022-11-01T01:16:25.747Z,4.20
2022-11-01T01:18:53.966Z,4.60
2022-11-01T01:21:23.668Z,4.20
2022-11-01T01:23:54.963Z,5.10
2022-11-01T01:26:23.211Z,5.03
2022-11-01T01:28:54.795Z,4.32
2022-11-01T01:33:50.905Z,3.92
2022-11-01T01:36:19.126Z,3.15
2022-11-01T01:38:48.614Z,2.70
2022-11-01T01:41:34.079Z,2.42
2022-11-01T01:44:03.486Z,2.78
2022-11-01T01:46:31.632Z,2.33
2022-11-01T01:49:01.196Z,2.60
2022-11-01T01:51:30.952Z,2.17
2022-11-01T01:54:00.880Z,2.33
2022-11-01T01:56:34.524Z,2.22
2022-11-01T01:59:06.479Z,2.70
2022-11-01T02:01:36.614Z,2.40
2022-11-01T02:04:06.113Z,2.63
2022-11-01T02:06:36.019Z,2.33
2022-11-01T02:09:08.466Z,2.40
2022-11-01T02:11:36.790Z,2.45
2022-11-01T02:14:05.329Z,2.38
2022-11-01T02:16:48.319Z,2.75
2022-11-01T02:20:07.136Z,2.42
2022-11-01T02:22:55.380Z,2.60
2022-11-01T02:25:49.648Z,2.40
2022-11-01T02:28:38.637Z,2.10
2022-11-01T02:31:29.801Z,1.90
2022-11-01T02:36:35.370Z,2.25
2022-11-01T02:39:10.395Z,1.98
2022-11-01T02:41:43.705Z,1.60
2022-11-01T02:44:17.176Z,1.60
2022-11-01T02:47:02.261Z,1.45
2022-11-01T02:49:35.393Z,1.35
2022-11-01T02:52:05.352Z,1.25
2022-11-01T02:54:35.328Z,1.30
2022-11-01T02:57:08.298Z,1.33
2022-11-01T02:59:44.919Z,1.10
2022-11-01T03:02:19.646Z,1.20
2022-11-01T03:04:49.790Z,1.55
2022-11-01T03:07:18.737Z,1.20
2022-11-01T03:09:47.158Z,1.60
2022-11-01T03:12:25.755Z,1.75
2022-11-01T03:15:02.305Z,1.27
2022-11-01T03:17:41.407Z,1.35
2022-11-01T03:20:21.049Z,1.85
2022-11-01T03:22:53.931Z,1.45
2022-11-01T03:25:40.174Z,1.25
2022-11-01T03:28:13.129Z,1.30
2022-11-01T03:30:44.672Z,1.52
2022-11-01T03:33:14.992Z,1.33
2022-11-01T03:35:48.826Z,1.50
2022-11-01T03:38:21.195Z,1.25
2022-11-01T03:40:54.275Z,1.38
2022-11-01T03:43:25.532Z,1.40
2022-11-01T03:45:53.926Z,1.25
2022-11-01T03:48:22.084Z,1.58
2022-11-01T03:50:52.595Z,1.95
2022-11-01T03:53:20.923Z,1.60
2022-11-01T03:55:49.413Z,2.20
2022-11-01T03:58:17.871Z,1.55
2022-11-01T04:00:47.543Z,1.55
2022-11-01T04:03:15.629Z,1.10
2022-11-01T04:05:44.293Z,1.40
2022-11-01T04:08:14.008Z,1.45
2022-11-01T04:10:44.754Z,1.30
2022-11-01T04:13:13.781Z,1.40
2022-11-01T04:16:14.221Z,1.20
2022-11-01T04:18:59.447Z,1.42
2022-11-01T04:21:28.048Z,1.13
2022-11-01T04:23:57.565Z,1.10
2022-11-01T04:26:25.773Z,1.98
2022-11-01T04:28:59.654Z,1.13
2022-11-01T04:31:29.651Z,1.40
2022-11-01T04:33:58.228Z,1.48
2022-11-01T04:36:27.464Z,1.75
2022-11-01T04:38:58.473Z,1.67
2022-11-01T04:41:28.443Z,1.58
2022-11-01T04:43:59.174Z,1.48
2022-11-01T04:46:33.242Z,1.77
2022-11-01T04:49:01.668Z,1.80
2022-11-01T04:51:29.907Z,2.20
2022-11-01T04:54:01.357Z,1.40
2022-11-01T04:56:29.582Z,1.60
2022-11-01T04:58:58.401Z,1.70
2022-11-01T05:01:26.714Z,1.63
2022-11-01T05:03:55.796Z,2.53
2022-11-01T05:06:23.903Z,1.08
2022-11-01T05:08:52.103Z,1.67
2022-11-01T05:11:25.872Z,1.75
2022-11-01T05:13:54.347Z,1.70
2022-11-01T05:16:22.463Z,1.63
2022-11-01T05:18:50.804Z,1.85
2022-11-01T05:21:19.166Z,1.30
2022-11-01T05:23:49.020Z,1.52
2022-11-01T05:26:17.280Z,1.50
2022-11-01T05:28:46.837Z,1.60
2022-11-01T05:31:15.041Z,1.38
2022-11-01T05:33:43.093Z,1.70
2022-11-01T05:36:11.359Z,1.67
2022-11-01T05:38:39.651Z,1.70
2022-11-01T05:41:07.970Z,1.42
2022-11-01T05:43:36.183Z,1.25
2022-11-01T05:46:07.013Z,2.05
2022-11-01T05:48:35.861Z,2.45
2022-11-01T05:51:04.031Z,1.30
2022-11-01T05:53:32.226Z,1.58
2022-11-01T05:56:01.012Z,2.47
2022-11-01T05:58:30.785Z,2.17
2022-11-01T06:00:59.939Z,1.75
2022-11-01T06:03:29.748Z,2.30
2022-11-01T06:05:58.483Z,1.83
2022-11-01T06:08:27.238Z,1.92
2022-11-01T06:11:02.732Z,2.00
2022-11-01T06:13:30.817Z,1.42
2022-11-01T06:16:00.324Z,1.77
2022-11-01T06:18:30.066Z,1.73
2022-11-01T06:20:59.452Z,2.60
2022-11-01T06:23:27.785Z,1.98
2022-11-01T06:26:01.435Z,1.45
2022-11-01T06:28:29.865Z,1.52
2022-11-01T06:31:01.986Z,3.17
2022-11-01T06:33:31.798Z,1.85
2022-11-01T06:35:59.958Z,2.78
2022-11-01T06:38:28.126Z,1.55
2022-11-01T06:40:56.374Z,3.00
2022-11-01T06:43:24.674Z,1.88
2022-11-01T06:45:52.761Z,2.33
2022-11-01T06:48:20.957Z,1.60
2022-11-01T06:50:51.528Z,1.73
2022-11-01T06:53:19.742Z,2.00
2022-11-01T06:55:47.910Z,3.08
2022-11-01T06:58:16.257Z,2.22
2022-11-01T07:00:44.850Z,1.80
2022-11-01T07:03:15.049Z,1.60
2022-11-01T07:05:43.654Z,2.65
2022-11-01T07:08:14.424Z,1.88
2022-11-01T07:10:44.691Z,2.38
2022-11-01T07:13:14.388Z,2.08
2022-11-01T07:15:42.553Z,1.63
2022-11-01T07:18:10.906Z,1.40
2022-11-01T07:20:42.580Z,2.75
2022-11-01T07:23:14.807Z,2.00
2022-11-01T07:25:43.970Z,1.20
2022-11-01T07:28:12.475Z,2.13
2022-11-01T07:30:40.804Z,1.30
2022-11-01T07:33:08.970Z,1.48
2022-11-01T07:35:37.466Z,1.40
2022-11-01T07:38:09.696Z,1.40
2022-11-01T07:40:42.650Z,1.77
2022-11-01T07:43:10.802Z,1.52
2022-11-01T07:45:39.180Z,1.88
2022-11-01T07:48:10.434Z,1.50
2022-11-01T07:50:40.052Z,1.50
2022-11-01T07:53:10.409Z,2.38
2022-11-01T07:55:39.489Z,2.40
2022-11-01T07:58:09.972Z,2.47
2022-11-01T08:00:38.709Z,1.73
2022-11-01T08:03:08.859Z,2.40
2022-11-01T08:05:37.665Z,1.30
2022-11-01T08:08:07.115Z,1.80
2022-11-01T08:10:36.680Z,1.70
2022-11-01T08:13:05.960Z,1.85
2022-11-01T08:15:36.059Z,2.60
2022-11-01T08:18:05.204Z,2.15
2022-11-01T08:20:36.364Z,2.50
2022-11-01T08:23:05.312Z,2.53
2022-11-01T08:25:34.948Z,1.90
2022-11-01T08:28:04.036Z,3.13
2022-11-01T08:30:32.735Z,2.45
2022-11-01T08:33:04.008Z,2.80
2022-11-01T08:38:01.338Z,2.50
2022-11-01T08:40:30.088Z,1.95
2022-11-01T08:42:58.732Z,2.25
2022-11-01T08:45:27.803Z,2.85
2022-11-01T08:48:00.326Z,2.35
2022-11-01T08:50:30.183Z,2.75
2022-11-01T08:52:58.497Z,2.50
2022-11-01T08:55:26.807Z,3.50
2022-11-01T08:57:55.063Z,3.35
2022-11-01T09:00:23.461Z,2.50
2022-11-01T09:02:51.773Z,2.63
2022-11-01T09:05:19.995Z,3.45
2022-11-01T09:07:49.954Z,3.28
2022-11-01T09:10:18.210Z,4.95
2022-11-01T09:12:46.342Z,2.83
2022-11-01T09:15:14.555Z,3.45
2022-11-01T09:17:42.717Z,3.50
2022-11-01T09:20:11.268Z,3.20
2022-11-01T09:22:39.504Z,3.63
2022-11-01T09:25:09.962Z,4.07
2022-11-01T09:27:38.143Z,3.35
2022-11-01T09:30:07.296Z,4.05
2022-11-01T09:32:35.545Z,3.50
2022-11-01T09:35:04.117Z,3.72
2022-11-01T09:37:32.709Z,3.83
2022-11-01T09:40:00.771Z,3.33
2022-11-01T09:42:36.142Z,2.72
2022-11-01T09:45:09.647Z,3.45
2022-11-01T09:47:38.744Z,4.20
2022-11-01T09:50:18.651Z,4.55
2022-11-01T09:52:46.850Z,2.72
2022-11-01T09:55:17.303Z,3.53
2022-11-01T09:57:55.177Z,4.20
2022-11-01T10:00:23.610Z,3.22
2022-11-01T10:03:25.358Z,5.22
2022-11-01T10:06:03.615Z,3.15
2022-11-01T10:08:42.699Z,3.13
2022-11-01T10:11:39.383Z,3.75
2022-11-01T10:14:20.265Z,4.00
2022-11-01T10:16:58.059Z,3.58
2022-11-01T10:19:30.668Z,3.42
2022-11-01T10:22:03.304Z,3.22
2022-11-01T10:24:37.683Z,3.78
2022-11-01T10:27:12.236Z,4.78
2022-11-01T10:29:48.604Z,2.80
2022-11-01T10:32:26.207Z,3.28
2022-11-01T10:34:56.843Z,2.92
2022-11-01T10:37:28.550Z,2.87
2022-11-01T10:40:02.794Z,3.22
2022-11-01T10:42:34.841Z,2.97
2022-11-01T10:45:09.017Z,3.63
2022-11-01T10:47:37.361Z,3.05
2022-11-01T10:50:14.440Z,3.10
2022-11-01T10:52:49.264Z,2.55
2022-11-01T10:55:22.497Z,2.58
2022-11-01T10:57:56.610Z,3.65
2022-11-01T11:00:26.248Z,3.30
2022-11-01T11:02:57.422Z,2.28
2022-11-01T11:05:27.605Z,3.03
2022-11-01T11:07:57.560Z,3.35
2022-11-01T11:10:29.297Z,3.45
2022-11-01T11:13:01.694Z,2.95
2022-11-01T11:15:43.374Z,4.57
2022-11-01T11:18:22.926Z,4.30
2022-11-01T11:21:00.183Z,4.20
2022-11-01T11:23:30.630Z,3.15
2022-11-01T11:26:03.589Z,3.72
2022-11-01T11:28:35.523Z,3.58
2022-11-01T11:31:15.567Z,6.03
2022-11-01T11:33:50.466Z,4.10
2022-11-01T11:36:20.296Z,3.15
2022-11-01T11:38:50.088Z,3.80
2022-11-01T11:41:29.601Z,4.68
2022-11-01T11:43:57.797Z,4.30
2022-11-01T11:46:27.721Z,4.43
2022-11-01T11:48:59.301Z,3.63
2022-11-01T11:54:17.361Z,4.05
2022-11-01T11:56:46.339Z,4.20
2022-11-01T11:59:23.152Z,4.05
2022-11-01T12:01:57.243Z,3.90
2022-11-01T12:04:25.493Z,3.75
2022-11-01T12:06:54.134Z,3.58
2022-11-01T12:09:42.853Z,4.05
2022-11-01T12:12:18.473Z,3.25
2022-11-01T12:14:46.870Z,3.25
2022-11-01T12:17:27.828Z,3.05
2022-11-01T12:20:17.748Z,4.85
2022-11-01T12:22:51.831Z,3.50
2022-11-01T12:25:23.394Z,3.40
2022-11-01T12:30:26.001Z,3.67
2022-11-01T12:32:58.936Z,4.70
2022-11-01T12:35:32.792Z,3.53
2022-11-01T12:38:18.851Z,3.45
2022-11-01T12:40:50.128Z,3.13
2022-11-01T12:43:23.648Z,3.35
2022-11-01T12:45:57.163Z,2.78
2022-11-01T12:48:31.646Z,3.47
2022-11-01T12:51:05.356Z,4.55
2022-11-01T12:53:40.739Z,3.85
2022-11-01T12:56:09.160Z,3.00
2022-11-01T12:58:37.546Z,3.78
2022-11-01T13:01:21.203Z,3.42
2022-11-01T13:04:01.607Z,5.55
2022-11-01T13:06:47.180Z,3.63
2022-11-01T13:09:25.531Z,3.22
2022-11-01T13:12:01.590Z,3.47
2022-11-01T13:14:43.498Z,2.45
2022-11-01T13:17:20.419Z,3.20
2022-11-01T13:20:00.646Z,4.13
2022-11-01T13:22:39.802Z,3.85
2022-11-01T13:25:18.162Z,3.08
2022-11-01T13:27:53.472Z,3.28
2022-11-01T13:30:22.311Z,3.38
2022-11-01T13:32:59.379Z,3.80
2022-11-01T13:35:49.331Z,4.15
2022-11-01T13:38:26.081Z,3.25
2022-11-01T13:41:04.662Z,4.15
2022-11-01T13:43:39.903Z,3.72
2022-11-01T13:46:34.985Z,2.95
2022-11-01T13:49:43.387Z,3.03
2022-11-01T13:52:19.882Z,3.20
2022-11-01T13:54:55.669Z,3.53
2022-11-01T13:57:27.251Z,3.30
2022-11-01T14:02:48.975Z,2.83
2022-11-01T14:05:17.468Z,3.83
2022-11-01T14:08:29.887Z,2.90
2022-11-01T14:10:59.584Z,3.53
2022-11-01T14:13:33.735Z,2.47
2022-11-01T14:16:24.122Z,7.72
2022-11-01T14:19:22.155Z,4.68
2022-11-01T14:21:54.221Z,2.70
2022-11-01T14:24:34.899Z,3.05
2022-11-01T14:27:22.820Z,2.58
2022-11-01T14:29:54.956Z,2.65
2022-11-01T14:32:26.308Z,3.03
2022-11-01T14:35:03.114Z,2.50
2022-11-01T14:37:38.725Z,2.70
2022-11-01T14:40:30.592Z,2.88
2022-11-01T14:43:05.528Z,2.88
2022-11-01T15:18:17.470Z,2.78
2022-11-01T15:20:49.842Z,2.53
2022-11-01T15:23:21.231Z,4.18
2022-11-01T15:25:53.107Z,2.95
2022-11-01T15:28:25.156Z,2.10
2022-11-01T15:30:58.840Z,2.63
2022-11-01T15:33:31.026Z,2.55
2022-11-01T15:36:01.119Z,2.60
2022-11-01T15:38:30.441Z,2.40
2022-11-01T15:40:58.611Z,3.42
2022-11-01T15:43:28.163Z,2.20
2022-11-01T15:45:59.776Z,1.70
2022-11-01T15:51:03.307Z,2.63
2022-11-01T15:53:35.062Z,1.88
2022-11-01T15:56:07.655Z,1.75
2022-11-01T15:58:39.559Z,2.10
2022-11-01T16:01:14.419Z,2.00
2022-11-01T16:03:49.733Z,2.28
2022-11-01T16:06:23.079Z,2.75
2022-11-01T16:08:55.040Z,2.40
2022-11-01T16:11:27.533Z,2.17
2022-11-01T16:14:00.157Z,2.03
2022-11-01T16:16:28.514Z,2.00
2022-11-01T16:18:58.228Z,1.63
2022-11-01T16:21:30.933Z,3.47
2022-11-01T16:24:06.838Z,3.25
2022-11-01T16:26:56.023Z,1.98
2022-11-01T16:29:42.653Z,1.65
2022-11-01T16:32:20.381Z,1.63
2022-11-01T16:34:50.156Z,1.60
2022-11-01T16:37:21.360Z,1.52
2022-11-01T16:39:49.469Z,2.28
2022-11-01T16:42:18.533Z,2.20
2022-11-01T16:44:47.442Z,1.90
2022-11-01T16:47:17.591Z,2.42
2022-11-01T16:49:51.939Z,1.60
2022-11-01T16:52:20.582Z,1.45
2022-11-01T16:54:51.122Z,1.58
2022-11-01T16:57:25.995Z,0.98
2022-11-01T16:59:55.791Z,1.90
2022-11-01T17:02:27.132Z,1.88
2022-11-01T17:05:04.441Z,1.90
2022-11-01T17:07:32.523Z,1.67
2022-11-01T17:10:00.790Z,2.55
2022-11-01T17:12:29.018Z,1.92
2022-11-01T17:14:57.220Z,1.90
2022-11-01T17:17:27.596Z,2.17
2022-11-01T17:20:04.258Z,1.95
2022-11-01T17:22:36.298Z,1.98
2022-11-01T17:25:06.218Z,1.50
2022-11-01T17:27:34.463Z,1.63
2022-11-01T17:30:02.698Z,1.60
2022-11-01T17:32:31.060Z,1.70
2022-11-01T17:35:00.639Z,1.42
2022-11-01T17:37:32.416Z,1.50
2022-11-01T17:40:02.054Z,1.70
2022-11-01T17:42:30.410Z,1.60
2022-11-01T17:44:58.545Z,1.73
2022-11-01T17:47:27.013Z,1.63
2022-11-01T17:49:55.124Z,1.85
2022-11-01T17:52:24.647Z,2.00
2022-11-01T17:54:52.737Z,2.22
2022-11-01T17:57:20.836Z,2.00
2022-11-01T17:59:49.026Z,2.17
2022-11-01T18:02:17.336Z,2.20
2022-11-01T18:04:45.463Z,3.08
2022-11-01T18:07:13.982Z,2.63
2022-11-01T18:09:43.605Z,2.60
2022-11-01T18:12:18.191Z,3.22
2022-11-01T18:14:55.941Z,2.30
2022-11-01T18:17:39.045Z,2.63
2022-11-01T18:20:16.592Z,2.17
2022-11-01T18:22:52.584Z,2.72
2022-11-01T18:25:32.667Z,2.22
2022-11-01T18:28:02.538Z,2.03
2022-11-01T18:30:31.549Z,2.08
2022-11-01T18:33:05.328Z,2.28
2022-11-01T18:35:39.549Z,1.60
2022-11-01T18:38:17.967Z,1.85
2022-11-01T18:40:59.343Z,2.15
2022-11-01T18:43:29.943Z,2.25
2022-11-01T18:46:23.265Z,1.93
2022-11-01T18:48:46.416Z,2.50
2022-11-01T18:51:20.891Z,1.52
2022-11-01T18:53:54.342Z,1.60
2022-11-01T18:56:25.770Z,1.20
2022-11-01T19:01:32.509Z,1.17
2022-11-01T19:04:07.842Z,2.97
2022-11-01T19:06:36.062Z,1.30
2022-11-01T19:09:17.755Z,1.33
2022-11-01T19:14:23.205Z,1.38
2022-11-01T19:16:51.940Z,1.40
2022-11-01T19:19:21.668Z,1.50
2022-11-01T19:21:49.969Z,0.90
2022-11-01T19:24:31.334Z,1.55
2022-11-01T19:27:02.445Z,2.20
2022-11-01T19:29:35.212Z,1.90
2022-11-01T19:32:05.370Z,1.92
2022-11-01T19:34:37.239Z,1.60
2022-11-01T19:37:17.148Z,1.90
2022-11-01T19:39:45.805Z,1.90
2022-11-01T19:42:25.192Z,1.80
2022-11-01T19:44:57.714Z,1.58
2022-11-01T19:47:39.873Z,1.88
2022-11-01T19:50:22.050Z,1.70
2022-11-01T19:52:52.288Z,1.75
2022-11-01T19:55:37.147Z,1.80
2022-11-01T19:58:25.104Z,1.70
2022-11-01T20:01:03.364Z,1.80
2022-11-01T20:03:39.486Z,1.60
2022-11-01T20:06:15.951Z,2.33
2022-11-01T20:08:45.312Z,2.22
2022-11-01T20:11:13.783Z,2.42
2022-11-01T20:13:43.472Z,2.47
2022-11-01T20:16:12.228Z,2.20
2022-11-01T20:18:41.350Z,2.05
2022-11-01T20:21:10.248Z,1.70
2022-11-01T20:23:39.075Z,2.13
2022-11-01T20:26:07.650Z,1.60
2022-11-01T20:28:37.895Z,1.95
2022-11-01T20:31:07.737Z,1.73
2022-11-01T20:33:36.043Z,2.60
2022-11-01T20:36:10.802Z,1.88
2022-11-01T20:38:39.913Z,2.35
2022-11-01T20:41:09.325Z,2.15
2022-11-01T20:43:38.083Z,2.08
2022-11-01T20:46:08.072Z,2.25
2022-11-01T20:48:36.308Z,1.98
2022-11-01T20:51:04.552Z,1.75
2022-11-01T20:53:33.213Z,1.80
2022-11-01T20:56:01.857Z,2.40
2022-11-01T20:58:30.637Z,1.63
2022-11-01T21:00:58.949Z,2.55
2022-11-01T21:03:29.213Z,2.47
2022-11-01T21:05:57.345Z,2.05
2022-11-01T21:08:28.170Z,2.05
2022-11-01T21:10:58.875Z,2.30
2022-11-01T21:13:30.544Z,1.70
2022-11-01T21:16:00.824Z,2.30
2022-11-01T21:18:34.395Z,2.45
2022-11-01T21:21:31.723Z,2.75
2022-11-01T21:24:02.474Z,2.65
2022-11-01T21:26:33.046Z,2.30
2022-11-01T21:29:06.645Z,2.17
2022-11-01T21:31:35.905Z,1.92
2022-11-01T21:34:30.998Z,3.42
2022-11-01T21:37:01.049Z,2.28
2022-11-01T21:39:33.427Z,2.47
2022-11-01T21:42:05.464Z,1.88
2022-11-01T21:44:40.217Z,2.15
2022-11-01T21:47:19.264Z,3.00
2022-11-01T21:49:48.895Z,2.47
2022-11-01T21:52:19.426Z,2.78
2022-11-01T21:54:48.529Z,3.08
2022-11-01T21:57:17.954Z,4.90
2022-11-01T21:59:46.286Z,2.67
2022-11-01T22:02:15.843Z,2.80
2022-11-01T22:04:46.299Z,3.27
2022-11-01T22:07:15.827Z,3.17
2022-11-01T22:09:44.057Z,5.95
2022-11-01T22:12:12.256Z,2.72
2022-11-01T22:14:40.454Z,14.25
2022-11-01T22:17:08.792Z,5.88
2022-11-01T22:19:37.001Z,2.40
2022-11-01T22:22:05.161Z,2.83
2022-11-01T22:24:34.751Z,2.65
2022-11-01T22:27:05.217Z,2.75
2022-11-01T22:29:33.381Z,3.67
2022-11-01T22:32:01.681Z,2.03
2022-11-01T22:34:29.951Z,2.35
2022-11-01T22:36:58.258Z,3.58
2022-11-01T22:39:28.851Z,2.03
2022-11-01T22:41:58.407Z,3.08
2022-11-01T22:44:28.533Z,2.60
2022-11-01T22:46:59.648Z,2.72
2022-11-01T22:49:30.248Z,1.88
2022-11-01T22:52:03.597Z,2.03
2022-11-01T22:54:40.168Z,3.00
2022-11-01T22:57:16.848Z,2.10
2022-11-01T22:59:47.716Z,1.67
2022-11-01T23:02:34.897Z,1.95
2022-11-01T23:05:25.632Z,1.48
2022-11-01T23:07:55.299Z,1.50
2022-11-01T23:10:31.972Z,1.45
2022-11-01T23:13:25.866Z,1.80
2022-11-01T23:16:02.914Z,2.15
2022-11-01T23:18:33.226Z,1.45
2022-11-01T23:21:03.355Z,1.65
2022-11-01T23:23:31.647Z,1.95
2022-11-01T23:26:02.772Z,1.98
2022-11-01T23:28:35.129Z,2.90
2022-11-01T23:31:04.802Z,2.70
2022-11-01T23:33:37.643Z,1.60
2022-11-01T23:36:06.473Z,1.50
2022-11-01T23:38:37.324Z,1.50
2022-11-01T23:41:05.898Z,1.92
2022-11-01T23:43:39.035Z,1.45
2022-11-01T23:46:07.790Z,1.20
2022-11-01T23:48:41.593Z,1.30
2022-11-01T23:51:16.269Z,1.98
2022-11-01T23:53:46.423Z,1.30
2022-11-01T23:56:19.664Z,1.67
2022-11-01T23:58:54.948Z,1.98
